Flight Track Log - Related Links

Times and Time Zones

All times are in EDT time to prevent confusion due to time zone crossing. See the TRS398 flight status page for this flight to view local times or setup timezone preferences in your user account.

Time Position Orientation Groundspeed Altitude Reporting Facility
EDT Latitude Longitude Course Direction KTS MPH feet Rate Location/Type
Wed 02:51:14 PM 28.4000 -81.3000 221° Southwest 171 197 900  Level Orlando TRACON
Wed 02:51:44 PM 28.3833 -81.3167 221° Southwest 201 231 1,600 1,667 Climbing Orlando TRACON
Wed 02:52:44 PM 28.3333 -81.3667 221° Southwest 257 296 3,400 2,050 Climbing Orlando TRACON
Wed 02:53:44 PM 28.3333 -81.4500 270° West 290 334 5,700 2,777 Climbing Orlando TRACON
Wed 02:54:45 PM 28.3667 -81.5333 294° West 276 318 9,000 2,227 Climbing Orlando TRACON
Wed 02:56:58 PM 28.5378 -81.5883 344° North 299 344 12,900 1,865 Climbing Jacksonville Center
Wed 02:57:58 PM 28.6358 -81.5964 356° North 329 379 15,000 2,000 Climbing Jacksonville Center
Wed 02:58:58 PM 28.7361 -81.6117 352° North 346 398 16,900 2,000 Climbing Jacksonville Center
Wed 02:59:58 PM 28.8428 -81.6292 352° North 365 420 19,000 2,150 Climbing Jacksonville Center
Wed 03:00:58 PM 28.9433 -81.6492 350° North 370 426 21,200 1,900 Climbing Jacksonville Center
Wed 03:01:58 PM 29.0478 -81.6669 352° North 370 426 22,800 1,400 Climbing Jacksonville Center
Wed 03:02:58 PM 29.1522 -81.6822 353° North 370 426 24,000 1,300 Climbing Jacksonville Center
Wed 03:03:58 PM 29.2714 -81.6950 355° North 376 433 25,400 1,300 Climbing Jacksonville Center
Wed 03:04:58 PM 29.3861 -81.7033 356° North 395 455 26,600 1,200 Climbing Jacksonville Center
Wed 03:05:58 PM 29.5053 -81.7114 357° North 409 471 27,800 1,100 Climbing Jacksonville Center
Wed 03:06:58 PM 29.6222 -81.7194 357° North 414 476 28,800 1,050 Climbing Jacksonville Center
Wed 03:07:58 PM 29.7414 -81.7278 357° North 425 489 29,900 950 Climbing Jacksonville Center
Wed 03:08:58 PM 29.8647 -81.7358 357° North 425 489 30,700 550 Climbing Jacksonville Center
Wed 03:09:58 PM 29.9900 -81.7439 357° North 433 498 31,000 150 Climbing Jacksonville Center
Wed 03:10:58 PM 30.1194 -81.7472 359° North 447 514 31,000  Level Jacksonville Center
Wed 03:11:58 PM 30.2511 -81.7575 356° North 463 533 31,000 250 Level Jacksonville Center
Wed 03:12:58 PM 30.3783 -81.7656 357° North 462 532 31,500 600 Climbing Jacksonville Center
Wed 03:13:58 PM 30.5058 -81.7739 357° North 464 534 32,200 650 Climbing Jacksonville Center
Wed 03:14:58 PM 30.6272 -81.7894 354° North 464 534 32,800 400 Climbing Jacksonville Center
Wed 03:15:58 PM 30.7567 -81.7975 357° North 464 534 33,000 100 Climbing Jacksonville Center
Wed 03:16:58 PM 30.8842 -81.8275 349° North 464 534 33,000  Level Jacksonville Center
Wed 03:17:58 PM 31.0017 -81.8892 336° Northwest 464 534 33,000 -50 Level Jacksonville Center
Wed 03:18:58 PM 31.1233 -81.9508 337° Northwest 470 541 32,900  Descending Jacksonville Center
Wed 03:19:58 PM 31.2469 -82.0106 338° Northwest 476 548 33,000 50 Climbing Jacksonville Center
Wed 03:20:58 PM 31.3706 -82.0700 338° Northwest 476 548 33,000  Level Jacksonville Center
Wed 03:21:58 PM 31.4939 -82.1275 338° Northwest 476 548 33,000  Level Jacksonville Center
Wed 03:22:58 PM 31.6239 -82.1900 338° Northwest 476 548 33,000  Level Jacksonville Center
Wed 03:23:58 PM 31.7472 -82.2453 339° North 462 532 33,000  Level Jacksonville Center
Wed 03:24:58 PM 31.8561 -82.3031 336° Northwest 462 532 33,000  Level Jacksonville Center
Wed 03:26:32 PM 32.0675 -82.4017 338° Northwest 483 556 33,000  Level Atlanta Center
Wed 03:27:32 PM 32.1872 -82.4608 337° Northwest 471 542 33,000  Level Atlanta Center
Wed 03:28:32 PM 32.3092 -82.5225 337° Northwest 471 542 33,000 450 Level Atlanta Center
Wed 03:29:32 PM 32.4331 -82.5819 338° Northwest 476 548 33,900 500 Climbing Atlanta Center
Wed 03:30:32 PM 32.5506 -82.6417 337° Northwest 471 542 34,000 50 Climbing Atlanta Center
Wed 03:31:32 PM 32.6681 -82.6989 338° Northwest 460 529 34,000  Level Atlanta Center
Wed 03:32:32 PM 32.7856 -82.7542 338° Northwest 460 529 34,000  Level Atlanta Center
Wed 03:33:32 PM 32.9072 -82.8167 337° Northwest 460 529 34,000  Level Atlanta Center
Wed 03:34:32 PM 33.0269 -82.8769 337° Northwest 460 529 34,000  Level Atlanta Center
Wed 03:35:32 PM 33.1486 -82.9372 337° Northwest 460 529 34,000  Level Atlanta Center
Wed 03:36:32 PM 33.2681 -82.9953 338° Northwest 468 539 34,000  Level Atlanta Center
Wed 03:37:32 PM 33.3917 -83.0536 338° Northwest 468 539 34,000  Level Atlanta Center
Wed 03:38:32 PM 33.5069 -83.1144 336° Northwest 463 533 34,000  Level Atlanta Center
Wed 03:39:32 PM 33.6283 -83.1756 337° Northwest 457 526 34,000  Level Atlanta Center
Wed 03:40:32 PM 33.7456 -83.2344 337° Northwest 457 526 34,000  Level Atlanta Center
Wed 03:41:32 PM 33.8650 -83.2958 337° Northwest 462 532 34,000  Level Atlanta Center
Wed 03:42:32 PM 33.9844 -83.3550 338° Northwest 462 532 34,000  Level Atlanta Center
Wed 03:43:32 PM 34.1058 -83.4192 336° Northwest 462 532 34,000  Level Atlanta Center
Wed 03:44:32 PM 34.2250 -83.4786 338° Northwest 462 532 34,000  Level Atlanta Center
Wed 03:45:32 PM 34.3442 -83.5406 337° Northwest 462 532 34,000  Level Atlanta Center
Wed 03:46:32 PM 34.4656 -83.6031 337° Northwest 462 532 34,000  Level Atlanta Center
Wed 03:47:32 PM 34.5722 -83.6553 338° Northwest 462 532 34,000  Level Atlanta Center
Wed 03:48:32 PM 34.6933 -83.7181 337° Northwest 462 532 34,000  Level Atlanta Center
Wed 03:49:32 PM 34.8125 -83.7808 337° Northwest 462 532 34,000  Level Atlanta Center
Wed 03:50:32 PM 34.9314 -83.8436 337° Northwest 462 532 34,000  Level Atlanta Center
Wed 03:51:32 PM 35.0464 -83.9069 336° Northwest 462 532 34,000  Level Atlanta Center
Wed 03:52:32 PM 35.1675 -83.9703 337° Northwest 462 532 34,000  Level Atlanta Center
Wed 03:53:32 PM 35.2886 -84.0336 337° Northwest 462 532 34,000  Level Atlanta Center
Wed 03:54:32 PM 35.4094 -84.0972 337° Northwest 462 532 34,000  Level Atlanta Center
Wed 03:55:32 PM 35.5325 -84.1639 336° Northwest 467 537 34,000  Level Atlanta Center
Wed 03:56:32 PM 35.6533 -84.2253 338° Northwest 467 537 34,000  Level Atlanta Center
Wed 03:57:32 PM 35.7744 -84.2894 337° Northwest 467 537 34,000  Level Atlanta Center
Wed 03:58:32 PM 35.8972 -84.3567 336° Northwest 472 543 34,000  Level Atlanta Center
Wed 03:59:32 PM 36.0181 -84.4211 337° Northwest 472 543 34,000  Level Atlanta Center
Wed 04:01:13 PM 36.2314 -84.5364 336° Northwest 481 554 34,000  Level Indianapolis Center
Wed 04:02:15 PM 36.3519 -84.6019 336° Northwest 478 550 34,000  Level Indianapolis Center
Wed 04:03:17 PM 36.4739 -84.6672 337° Northwest 477 549 34,000  Level Indianapolis Center
Wed 04:04:19 PM 36.5972 -84.7347 336° Northwest 483 556 34,000  Level Indianapolis Center
Wed 04:05:21 PM 36.7444 -84.8156 336° Northwest 483 556 34,000  Level Indianapolis Center
Wed 04:06:22 PM 36.8672 -84.8833 336° Northwest 484 557 34,000  Level Indianapolis Center
Wed 04:07:24 PM 36.9911 -84.9517 336° Northwest 486 559 34,000  Level Indianapolis Center
Wed 04:08:26 PM 37.1208 -85.0242 336° Northwest 489 563 34,000  Level Indianapolis Center
Wed 04:09:28 PM 37.2467 -85.0944 336° Northwest 493 567 34,000  Level Indianapolis Center
Wed 04:10:29 PM 37.3722 -85.1636 336° Northwest 491 565 34,000  Level Indianapolis Center
Wed 04:11:31 PM 37.4986 -85.2344 336° Northwest 492 566 34,000  Level Indianapolis Center
Wed 04:12:33 PM 37.6225 -85.3050 336° Northwest 489 563 34,000  Level Indianapolis Center
Wed 04:13:34 PM 37.7481 -85.3772 336° Northwest 493 567 34,000  Level Indianapolis Center
Wed 04:14:36 PM 37.8944 -85.4578 337° Northwest 499 574 34,000  Level Indianapolis Center
Wed 04:15:38 PM 38.0186 -85.5292 336° Northwest 494 568 34,000  Level Indianapolis Center
Wed 04:16:39 PM 38.1450 -85.6025 335° Northwest 497 572 34,000  Level Indianapolis Center
Wed 04:17:41 PM 38.2719 -85.6750 336° Northwest 497 572 34,000  Level Indianapolis Center
Wed 04:18:43 PM 38.3992 -85.7517 335° Northwest 503 579 34,000  Level Indianapolis Center
Wed 04:19:45 PM 38.5267 -85.8261 335° Northwest 505 581 34,000  Level Indianapolis Center
Wed 04:20:46 PM 38.6547 -85.9025 335° Northwest 506 582 34,000  Level Indianapolis Center
Wed 04:21:48 PM 38.8089 -85.9944 335° Northwest 509 586 34,000  Level Indianapolis Center
Wed 04:22:50 PM 38.9181 -86.0606 335° Northwest 512 589 34,000  Level Indianapolis Center
Wed 04:23:52 PM 39.0736 -86.1531 335° Northwest 512 589 34,000  Level Indianapolis Center
Wed 04:24:53 PM 39.2036 -86.2319 335° Northwest 515 593 34,000  Level Indianapolis Center
Wed 04:25:55 PM 39.3339 -86.3117 335° Northwest 517 595 34,000  Level Indianapolis Center
Wed 04:26:57 PM 39.4650 -86.3914 335° Northwest 518 596 34,000  Level Indianapolis Center
Wed 04:27:59 PM 39.5975 -86.4728 335° Northwest 517 595 34,000  Level Indianapolis Center
Wed 04:29:00 PM 39.7308 -86.5542 335° Northwest 519 597 34,000  Level Indianapolis Center
Wed 04:30:02 PM 39.8633 -86.6358 335° Northwest 519 597 34,000  Level Indianapolis Center
Wed 04:31:04 PM 39.9947 -86.7175 335° Northwest 520 598 34,000  Level Indianapolis Center
Wed 04:31:56 PM 40.1258 -86.7994 334° Northwest 519 597 34,000  Level Chicago Center
Wed 04:32:58 PM 40.2594 -86.8831 334° Northwest 529 609 34,000  Level Chicago Center
Wed 04:34:00 PM 40.3933 -86.9667 335° Northwest 531 611 34,000  Level Chicago Center
Wed 04:35:02 PM 40.5275 -87.0486 335° Northwest 532 612 34,000  Level Chicago Center
Wed 04:36:04 PM 40.6764 -87.0836 350° North 537 618 34,000 -242 Level Chicago Center
Wed 04:37:06 PM 40.8519 -87.1047 355° North 553 636 33,500 -484 Descending Chicago Center
Wed 04:38:08 PM 41.0050 -87.1261 354° North 557 641 33,000 -242 Descending Chicago Center
Wed 04:39:10 PM 41.1606 -87.1444 355° North 564 649 33,000 -432 Level Chicago Center
Wed 04:40:13 PM 41.3128 -87.1658 354° North 558 642 32,100 -2,064 Descending Chicago Center
Wed 04:41:15 PM 41.4947 -87.1894 354° North 556 640 28,700 -2,806 Descending Chicago Center
Wed 04:42:17 PM 41.6397 -87.2106 354° North 535 616 26,300 -2,226 Descending Chicago Center
Wed 04:43:19 PM 41.7717 -87.2267 355° North 491 565 24,100 -1,355 Descending Chicago Center
Wed 04:44:21 PM 41.9061 -87.2431 355° North 490 564 23,500 -726 Descending Chicago Center
Wed 04:45:23 PM 42.0647 -87.2639 354° North 482 555 22,600 -823 Descending Chicago Center
Wed 04:46:25 PM 42.1972 -87.2806 355° North 481 554 21,800 -726 Descending Chicago Center
Wed 04:47:27 PM 42.3306 -87.2986 354° North 486 559 21,100 -919 Descending Chicago Center
Wed 04:48:29 PM 42.4617 -87.3194 353° North 479 551 19,900 -3,312 Descending Chicago Center
Wed 04:49:32 PM 42.6006 -87.3386 354° North 456 525 14,200 -4,608 Descending Chicago Center
Wed 04:50:34 PM 42.7144 -87.3536 354° North 416 479 10,300 -1,984 Descending Chicago Center
Wed 04:51:36 PM 42.7872 -87.4325 322° Northwest 356 410 10,100 -145 Descending Chicago Center
Wed 04:52:38 PM 42.8353 -87.5428 301° West 342 394 10,000 -484 Descending Chicago Center
Wed 04:53:40 PM 42.8786 -87.6361 302° West 294 338 9,100 -1,403 Descending Chicago Center
Wed 04:54:42 PM 42.9239 -87.7417 300° West 278 320 7,100 -1,016 Descending Chicago Center
Wed 04:55:44 PM 42.9144 -87.8272 261° West 261 300 7,000 -48 Descending Chicago Center
Wed 04:56:46 PM 42.8736 -87.8897 228° Southwest 227 261 7,000 -192 Level Chicago Center
Wed 04:57:49 PM 42.8469 -87.9606 243° Southwest 224 258 6,600 -1,104 Descending Chicago Center
Wed 04:58:51 PM 42.8294 -88.0408 253° West 216 249 4,700 -1,258 Descending Chicago Center
Wed 04:59:53 PM 42.8094 -88.1283 253° West 211 243 4,000 -339 Descending Chicago Center
Wed 05:00:55 PM 42.7931 -88.2033 253° West 210 242 4,000  Level Chicago Center
Wed 05:01:57 PM 42.8378 -88.2397 329° Northwest 200 230 4,000  Level Chicago Center
Wed 05:02:59 PM 42.8922 -88.2517 351° North 199 229 4,000 -624 Level Chicago Center
Wed 05:04:02 PM 42.8997 -88.1964 79° East 197 227 2,700 -624 Descending Chicago Center
Wed 05:05:04 PM 42.8906 -88.1258 100° East 173 199 2,700  Level Chicago Center
Wed 05:06:06 PM 42.9017 -88.0661 76° East 167 192 2,700 -242 Level Chicago Center
Wed 05:07:08 PM 42.9161 -88.0100 71° East 162 186 2,200 -581 Descending Chicago Center
Wed 05:08:10 PM 42.9281 -87.9606 72° East 150 173 1,500 -677 Descending Chicago Center

Login

Don't have an account? Register now (free) for customized features, flight alerts, and more!